Time;durP1;ratioP1;P1;durP2;ratioP2;P2;SDS_P1;SDS_P2;PMS_P1;PMS_P2;Temp;Humidity;BMP_temperature;BMP_pressure;BME280_temperature;BME280_humidity;BME280_pressure;Samples;Min_cycle;Max_cycle;Signal;HPM_P1;HPM_P2
2024/01/03 00:01:20;;;;;;;33.08;20.60;;;;;;;17.78;55.22;98590.19;4950564;29;20483;-43
2024/01/03 00:03:46;;;;;;;33.20;19.65;;;;;;;17.76;55.35;98606.44;4946878;29;20040;-43
2024/01/03 00:06:14;;;;;;;35.00;20.33;;;;;;;17.74;55.59;98613.84;4949819;28;20056;-43
2024/01/03 00:08:41;;;;;;;34.55;19.90;;;;;;;17.72;55.88;98600.63;4949579;29;20047;-43
2024/01/03 00:11:13;;;;;;;32.90;19.27;;;;;;;17.71;55.33;98615.06;4945249;29;20063;-42
2024/01/03 00:13:59;;;;;;;31.23;18.45;;;;;;;17.67;55.30;98623.72;4945447;29;20071;-42
2024/01/03 00:16:26;;;;;;;;;;;;;;;17.66;55.44;98619.41;4949364;29;20051;-43
2024/01/03 00:19:02;;;;;;;29.67;18.42;;;;;;;17.69;55.18;98627.03;4945188;28;19922;-43
2024/01/03 00:21:29;;;;;;;30.55;17.73;;;;;;;17.67;55.19;98626.41;4948539;29;20054;-43
2024/01/03 00:23:58;;;;;;;29.35;16.52;;;;;;;17.65;55.27;98641.88;4946749;28;20352;-43
2024/01/03 00:26:27;;;;;;;32.38;17.55;;;;;;;17.64;55.29;98634.84;4947424;28;20098;-42
2024/01/03 00:28:55;;;;;;;30.42;16.90;;;;;;;17.62;55.40;98644.97;4948193;28;20435;-44
2024/01/03 00:31:44;;;;;;;28.58;16.42;;;;;;;17.59;55.46;98643.50;4949670;28;20055;-43
2024/01/03 00:34:20;;;;;;;29.38;15.32;;;;;;;17.57;55.54;98645.56;4948706;29;20365;-43
2024/01/03 00:36:51;;;;;;;27.10;15.15;;;;;;;17.57;55.53;98653.63;4948084;29;20051;-43
2024/01/03 00:39:27;;;;;;;25.23;15.05;;;;;;;17.55;55.74;98657.50;4947651;29;20055;-44
2024/01/03 00:41:54;;;;;;;25.58;15.23;;;;;;;17.54;55.80;98637.94;4948451;29;20047;-42
2024/01/03 00:44:22;;;;;;;27.45;14.73;;;;;;;17.52;55.44;98654.19;4948835;28;20054;-42
2024/01/03 00:46:51;;;;;;;24.65;13.45;;;;;;;17.51;55.53;98649.88;4947686;28;20062;-43
2024/01/03 00:49:18;;;;;;;24.95;13.77;;;;;;;17.50;55.86;98658.13;4944121;29;20174;-43
2024/01/03 00:51:48;;;;;;;19.83;12.63;;;;;;;17.47;55.76;98648.63;4948136;29;20064;-43
2024/01/03 00:54:16;;;;;;;22.77;13.18;;;;;;;17.46;55.86;98657.72;4949090;29;20043;-43
2024/01/03 00:56:44;;;;;;;21.23;12.82;;;;;;;17.45;55.84;98633.81;4947764;29;20059;-43
2024/01/03 00:59:11;;;;;;;23.38;12.82;;;;;;;17.43;56.12;98647.41;4949203;28;20473;-43
2024/01/03 01:01:38;;;;;;;22.05;12.68;;;;;;;17.43;55.93;98643.91;4945493;28;20051;-43
2024/01/03 01:04:05;;;;;;;21.27;11.38;;;;;;;17.42;56.10;98661.81;4946422;29;20136;-44
2024/01/03 01:06:31;;;;;;;21.67;11.52;;;;;;;17.42;56.06;98658.31;4949636;28;20051;-44
2024/01/03 01:08:59;;;;;;;22.40;12.27;;;;;;;17.41;56.01;98676.25;4944126;29;20054;-44
2024/01/03 01:11:26;;;;;;;19.25;10.77;;;;;;;17.42;55.93;98679.75;4945148;29;20059;-42
2024/01/03 01:13:53;;;;;;;18.58;10.15;;;;;;;17.41;55.88;98680.78;4911337;29;1087778;-42
2024/01/03 01:16:19;;;;;;;18.40;10.32;;;;;;;17.40;55.84;98684.47;4945948;29;20145;-42
2024/01/03 01:18:46;;;;;;;20.48;10.60;;;;;;;17.39;55.92;98680.97;4942981;28;20047;-42
2024/01/03 01:21:13;;;;;;;17.67;9.80;;;;;;;17.39;55.94;98691.66;4948467;28;20050;-43
2024/01/03 01:23:42;;;;;;;19.02;9.52;;;;;;;17.38;55.88;98705.28;4949220;29;20103;-44
2024/01/03 01:26:09;;;;;;;16.92;10.07;;;;;;;17.38;55.87;98711.44;4946593;28;20458;-44
2024/01/03 01:28:36;;;;;;;17.35;9.55;;;;;;;17.38;56.04;98713.31;4949560;29;20059;-44
2024/01/03 01:31:03;;;;;;;17.45;9.20;;;;;;;17.38;55.79;98702.59;4947469;29;20090;-44
2024/01/03 01:33:29;;;;;;;14.55;8.00;;;;;;;17.37;55.79;98717.03;4947595;29;20055;-44
2024/01/03 01:35:56;;;;;;;15.13;8.27;;;;;;;17.35;55.93;98719.06;4948098;28;20487;-42
2024/01/03 01:38:23;;;;;;;18.55;8.52;;;;;;;17.35;55.85;98721.75;4948121;28;20059;-42
2024/01/03 01:40:50;;;;;;;16.98;8.05;;;;;;;17.36;56.32;98734.09;4946398;29;20047;-42
2024/01/03 01:43:16;;;;;;;16.52;8.75;;;;;;;17.35;55.75;98732.44;4949400;28;20435;-43
2024/01/03 01:45:46;;;;;;;18.02;7.85;;;;;;;17.35;56.03;98727.09;4950186;28;20409;-43
2024/01/03 01:48:15;;;;;;;14.68;7.57;;;;;;;17.34;55.88;98730.81;4949505;29;20074;-43
2024/01/03 01:50:43;;;;;;;17.75;8.13;;;;;;;17.34;55.93;98742.34;4950809;29;20083;-43
2024/01/03 01:53:10;;;;;;;14.48;7.63;;;;;;;17.34;55.96;98755.72;4949160;28;20052;-46
2024/01/03 01:55:39;;;;;;;13.98;7.72;;;;;;;17.34;56.25;98747.69;4948974;29;20682;-43
2024/01/03 01:58:08;;;;;;;15.57;7.35;;;;;;;17.33;55.68;98746.03;4950601;29;20055;-43
2024/01/03 02:00:38;;;;;;;15.30;6.75;;;;;;;17.33;56.14;98769.31;4948833;28;20071;-44
2024/01/03 02:03:07;;;;;;;15.73;7.32;;;;;;;17.33;56.00;98766.66;4948308;28;20061;-43
2024/01/03 02:05:37;;;;;;;15.10;7.28;;;;;;;17.33;55.78;98763.97;4950280;29;20091;-43
2024/01/03 02:08:08;;;;;;;16.13;6.57;;;;;;;17.32;56.29;98765.78;4951623;29;20273;-43
2024/01/03 02:10:35;;;;;;;15.65;6.18;;;;;;;17.31;55.98;98774.03;4951010;28;20454;-43
2024/01/03 02:13:02;;;;;;;11.60;5.82;;;;;;;17.31;55.53;98772.19;4948669;28;20055;-43
2024/01/03 02:15:28;;;;;;;16.42;6.95;;;;;;;17.29;55.78;98771.56;4951215;28;20130;-43
2024/01/03 02:17:56;;;;;;;16.73;7.15;;;;;;;17.28;55.81;98789.47;4949679;29;20082;-43
2024/01/03 02:20:24;;;;;;;17.02;6.85;;;;;;;17.31;56.41;98784.75;4948753;29;20118;-42
2024/01/03 02:22:51;;;;;;;13.40;5.88;;;;;;;17.28;55.86;98785.97;4949726;28;20098;-43
2024/01/03 02:25:17;;;;;;;11.93;6.15;;;;;;;17.29;55.64;98793.00;4947356;28;20074;-43
2024/01/03 02:27:44;;;;;;;13.40;5.20;;;;;;;17.27;55.90;98787.81;4948279;29;20055;-42
2024/01/03 02:30:11;;;;;;;12.60;5.38;;;;;;;17.28;55.84;98788.63;4950011;29;20133;-42
2024/01/03 02:32:38;;;;;;;14.10;5.75;;;;;;;17.27;55.75;98792.34;4948857;28;20426;-45
2024/01/03 02:35:05;;;;;;;13.90;5.32;;;;;;;17.26;55.74;98783.50;4945122;29;20049;-42
2024/01/03 02:37:32;;;;;;;12.45;4.93;;;;;;;17.27;55.82;98795.03;4948505;28;20130;-43
2024/01/03 02:39:59;;;;;;;12.82;5.22;;;;;;;17.25;56.27;98787.22;4947011;29;20380;-42
2024/01/03 02:42:26;;;;;;;14.80;5.80;;;;;;;17.25;56.29;98789.06;4948116;29;20114;-42
2024/01/03 02:44:52;;;;;;;10.95;4.70;;;;;;;17.25;56.11;98799.78;4946674;29;20118;-43
2024/01/03 02:47:19;;;;;;;16.00;5.18;;;;;;;17.25;55.79;98805.13;4945507;29;20051;-43
2024/01/03 02:49:45;;;;;;;11.48;4.97;;;;;;;17.25;55.57;98799.78;4946013;29;20055;-43
2024/01/03 02:52:12;;;;;;;10.85;4.72;;;;;;;17.24;56.33;98806.94;4941196;29;20486;-43
2024/01/03 02:54:39;;;;;;;11.10;4.47;;;;;;;17.24;55.90;98806.94;4941122;29;20055;-43
2024/01/03 02:57:05;;;;;;;11.43;4.53;;;;;;;17.23;55.70;98807.97;4943196;29;20141;-43
2024/01/03 02:59:33;;;;;;;14.48;4.97;;;;;;;17.25;56.12;98797.09;4946702;28;20062;-43
2024/01/03 03:02:00;;;;;;;11.13;4.65;;;;;;;17.25;56.07;98802.44;4944783;29;20138;-42
2024/01/03 03:04:26;;;;;;;10.30;4.30;;;;;;;17.26;56.33;98818.31;4943690;29;20775;-42
2024/01/03 03:06:53;;;;;;;9.55;4.43;;;;;;;17.33;55.79;98822.88;4946188;29;20466;-43
2024/01/03 03:09:20;;;;;;;11.40;4.00;;;;;;;17.41;55.78;98806.63;4946926;29;20074;-43
2024/01/03 03:11:46;;;;;;;10.70;4.20;;;;;;;17.48;55.39;98827.03;4946175;28;20058;-42
2024/01/03 03:14:15;;;;;;;8.82;4.25;;;;;;;17.58;55.78;98821.34;4946624;29;20152;-43
2024/01/03 03:16:42;;;;;;;10.48;3.78;;;;;;;17.67;55.21;98830.00;4944868;28;20428;-42
2024/01/03 03:19:09;;;;;;;8.60;3.47;;;;;;;17.73;54.95;98816.66;4945313;29;20055;-42
2024/01/03 03:21:35;;;;;;;7.97;3.38;;;;;;;17.80;54.86;98826.59;4945890;28;20058;-42
2024/01/03 03:24:03;;;;;;;10.20;3.65;;;;;;;17.85;54.38;98824.13;4942462;29;20059;-43
2024/01/03 03:26:29;;;;;;;11.35;3.60;;;;;;;17.90;55.03;98816.31;4947125;28;20047;-43
2024/01/03 03:28:56;;;;;;;10.23;3.90;;;;;;;17.92;54.69;98817.75;4944013;29;20086;-42
2024/01/03 03:31:22;;;;;;;8.10;3.35;;;;;;;17.94;54.75;98823.75;4946030;29;20055;-42
2024/01/03 03:33:49;;;;;;;8.85;3.38;;;;;;;17.97;54.53;98826.03;4944263;29;20047;-43
2024/01/03 03:36:16;;;;;;;8.43;3.40;;;;;;;17.98;54.31;98818.81;4944180;29;20069;-43
2024/01/03 03:38:42;;;;;;;10.30;3.42;;;;;;;17.99;54.51;98839.22;4944736;29;20435;-42
2024/01/03 03:41:11;;;;;;;7.63;3.30;;;;;;;17.98;54.27;98834.91;4943272;28;20407;-43
2024/01/03 03:43:39;;;;;;;11.35;3.75;;;;;;;17.96;54.44;98831.56;4943160;29;20052;-43
2024/01/03 03:46:06;;;;;;;10.32;3.75;;;;;;;17.94;54.45;98834.47;4947907;28;20067;-42
2024/01/03 03:48:33;;;;;;;9.52;3.75;;;;;;;17.94;54.33;98831.78;4946270;28;20055;-41
2024/01/03 03:51:01;;;;;;;9.60;3.50;;;;;;;17.93;54.20;98846.22;4947581;29;20055;-42
2024/01/03 03:53:28;;;;;;;14.00;4.10;;;;;;;17.91;54.53;98831.38;4944821;28;20410;-43
2024/01/03 03:55:55;;;;;;;12.43;3.75;;;;;;;17.90;54.14;98845.81;4946997;28;20051;-43
2024/01/03 03:58:21;;;;;;;12.73;3.58;;;;;;;17.90;54.64;98843.13;4946844;29;20059;-43
2024/01/03 04:00:48;;;;;;;8.63;3.67;;;;;;;17.87;54.56;98849.69;4946144;29;20130;-42
2024/01/03 04:03:15;;;;;;;8.20;3.40;;;;;;;17.86;54.71;98852.59;4942218;29;20079;-42
2024/01/03 04:05:41;;;;;;;12.30;4.28;;;;;;;17.84;54.47;98854.63;4943363;28;20040;-42
2024/01/03 04:08:09;;;;;;;9.35;3.67;;;;;;;17.83;54.57;98855.66;4946903;28;20056;-42
2024/01/03 04:10:36;;;;;;;11.95;3.17;;;;;;;17.82;54.43;98860.19;4945123;29;20362;-42
2024/01/03 04:13:04;;;;;;;10.00;3.25;;;;;;;17.81;54.46;98860.38;4945107;29;20060;-43
2024/01/03 04:15:30;;;;;;;10.25;3.25;;;;;;;17.81;54.36;98853.19;4947430;28;20133;-43
2024/01/03 04:17:57;;;;;;;11.10;3.80;;;;;;;17.82;54.45;98859.38;4944259;29;20063;-42
2024/01/03 04:20:24;;;;;;;10.55;3.33;;;;;;;17.82;54.34;98862.06;4944946;29;20051;-43
2024/01/03 04:22:51;;;;;;;11.32;3.65;;;;;;;17.83;54.41;98869.06;4945586;28;20403;-42
2024/01/03 04:25:17;;;;;;;8.95;3.17;;;;;;;17.84;54.18;98866.16;4947207;29;20055;-42
2024/01/03 04:27:44;;;;;;;6.95;2.80;;;;;;;17.84;54.59;98868.84;4947028;28;20086;-43
2024/01/03 04:30:11;;;;;;;10.90;3.03;;;;;;;17.82;54.56;98865.56;4947636;28;20063;-43
2024/01/03 04:32:37;;;;;;;11.70;3.67;;;;;;;17.83;54.36;98869.06;4945464;29;20071;-43
2024/01/03 04:35:05;;;;;;;10.68;3.28;;;;;;;17.79;54.40;98863.28;4943774;28;20047;-43
2024/01/03 04:37:33;;;;;;;7.53;2.70;;;;;;;17.75;54.70;98868.19;4947251;28;20431;-42
2024/01/03 04:40:00;;;;;;;10.10;3.15;;;;;;;17.72;54.86;98871.25;4947542;29;20051;-42
2024/01/03 04:42:26;;;;;;;11.18;3.65;;;;;;;17.72;54.83;98867.75;4949983;28;20047;-43
2024/01/03 04:44:53;;;;;;;9.75;3.17;;;;;;;17.74;54.78;98866.56;4949790;29;20047;-43
2024/01/03 04:47:20;;;;;;;9.75;3.40;;;;;;;17.76;54.70;98869.03;4945216;29;20107;-43
2024/01/03 04:49:47;;;;;;;8.13;2.55;;;;;;;17.76;54.60;98875.22;4950175;29;20083;-43
2024/01/03 04:52:14;;;;;;;8.38;3.35;;;;;;;17.79;54.88;98875.84;4945302;29;20377;-43
2024/01/03 04:54:40;;;;;;;8.93;2.90;;;;;;;17.79;54.50;98865.13;4947856;29;20122;-43
2024/01/03 04:57:07;;;;;;;9.98;2.95;;;;;;;17.78;54.78;98876.88;4952174;28;20134;-43
2024/01/03 04:59:35;;;;;;;10.25;3.28;;;;;;;17.80;54.23;98869.47;4951484;29;20137;-43
2024/01/03 05:02:02;;;;;;;8.43;3.20;;;;;;;17.81;54.63;98871.09;4950363;29;20055;-43
2024/01/03 05:04:28;;;;;;;10.43;3.38;;;;;;;17.80;54.69;98867.59;4947483;29;20044;-43
2024/01/03 05:06:56;;;;;;;12.05;3.53;;;;;;;17.81;54.71;98863.91;4947062;29;20078;-42
2024/01/03 05:09:23;;;;;;;8.43;2.95;;;;;;;17.82;54.58;98873.59;4951337;28;20185;-42
2024/01/03 05:11:50;;;;;;;8.60;3.08;;;;;;;17.85;54.49;98877.72;4948294;29;20098;-43
2024/01/03 05:14:17;;;;;;;6.63;2.30;;;;;;;17.90;54.44;98876.09;4948688;29;20198;-42
2024/01/03 05:16:44;;;;;;;7.07;2.58;;;;;;;17.97;54.06;98878.81;4945051;29;20058;-42
2024/01/03 05:19:10;;;;;;;10.85;3.25;;;;;;;18.02;54.02;98860.28;4943578;29;20142;-43
2024/01/03 05:21:37;;;;;;;12.75;3.08;;;;;;;18.05;54.05;98859.03;4944438;29;20051;-42
2024/01/03 05:24:04;;;;;;;8.68;2.72;;;;;;;18.09;53.90;98869.16;4946987;29;20074;-43
2024/01/03 05:26:31;;;;;;;8.95;3.05;;;;;;;18.12;53.79;98871.41;4948340;28;20057;-43
2024/01/03 05:28:58;;;;;;;8.45;2.95;;;;;;;18.14;53.54;98869.38;4944933;29;20056;-43
2024/01/03 05:31:24;;;;;;;9.63;2.90;;;;;;;18.16;53.82;98877.19;4946350;29;20094;-43
2024/01/03 05:33:51;;;;;;;9.18;2.95;;;;;;;18.16;53.93;98874.53;4947999;29;20051;-43
2024/01/03 05:36:18;;;;;;;6.88;2.55;;;;;;;18.16;53.83;98883.38;4945972;29;20051;-42
2024/01/03 05:38:45;;;;;;;11.48;3.15;;;;;;;18.15;53.61;98891.66;4945055;29;20043;-42
2024/01/03 05:41:11;;;;;;;12.15;3.35;;;;;;;18.15;54.00;98883.59;4948430;28;20595;-42
2024/01/03 05:43:38;;;;;;;11.65;2.90;;;;;;;18.12;53.78;98882.13;4948971;29;20764;-43
2024/01/03 05:46:05;;;;;;;10.02;3.30;;;;;;;18.11;53.89;98887.72;4946448;29;20051;-43
2024/01/03 05:48:32;;;;;;;9.38;3.50;;;;;;;18.10;53.94;98883.38;4944464;28;20118;-43
2024/01/03 05:50:59;;;;;;;10.40;3.08;;;;;;;18.08;53.71;98886.25;4946207;29;20114;-43
2024/01/03 05:53:26;;;;;;;7.63;2.75;;;;;;;18.06;53.68;98901.72;4945089;28;20419;-42
2024/01/03 05:55:52;;;;;;;13.35;2.80;;;;;;;18.07;53.53;98887.28;4942296;29;20079;-42
2024/01/03 05:58:19;;;;;;;8.98;2.83;;;;;;;18.04;53.68;98893.03;4943137;29;20067;-42
2024/01/03 06:00:45;;;;;;;7.95;2.65;;;;;;;18.01;53.40;98888.13;4949734;29;20086;-43
2024/01/03 06:03:12;;;;;;;7.70;2.30;;;;;;;17.98;53.63;98899.22;4946309;29;20055;-43
2024/01/03 06:05:39;;;;;;;8.77;2.88;;;;;;;17.96;53.88;98893.22;4945299;29;20044;-43
2024/01/03 06:08:06;;;;;;;11.18;3.30;;;;;;;17.92;53.83;98903.50;4945555;29;20059;-44
2024/01/03 06:10:33;;;;;;;13.73;3.60;;;;;;;17.91;53.89;98887.66;4944390;29;20435;-44
2024/01/03 06:13:00;;;;;;;10.13;3.15;;;;;;;17.91;53.85;98883.09;4944349;29;20059;-43
2024/01/03 06:15:26;;;;;;;9.45;3.42;;;;;;;17.92;53.85;98894.66;4945784;29;20083;-44
2024/01/03 06:17:53;;;;;;;12.65;3.35;;;;;;;17.89;54.37;98890.53;4944902;29;20346;-44
2024/01/03 06:20:20;;;;;;;5.97;2.55;;;;;;;17.90;53.78;98886.81;4945519;29;20059;-44
2024/01/03 06:22:49;;;;;;;8.57;2.70;;;;;;;17.92;53.95;98897.34;4945774;29;20047;-44
2024/01/03 06:25:16;;;;;;;8.55;2.83;;;;;;;17.92;54.06;98900.84;4947656;28;20051;-44
2024/01/03 06:27:43;;;;;;;8.95;2.45;;;;;;;17.96;54.06;98901.25;4947107;28;20432;-44
2024/01/03 06:30:10;;;;;;;7.72;2.53;;;;;;;17.98;54.29;98899.22;4946666;29;20475;-44
2024/01/03 06:32:37;;;;;;;7.85;2.50;;;;;;;18.02;53.96;98903.16;4942550;29;20091;-44
2024/01/03 06:35:04;;;;;;;7.80;2.72;;;;;;;18.07;53.51;98902.56;4946510;29;20416;-44
2024/01/03 06:37:31;;;;;;;10.48;2.70;;;;;;;18.11;53.67;98904.63;4947336;28;20146;-44
2024/01/03 06:39:58;;;;;;;8.27;2.67;;;;;;;18.14;53.59;98909.59;4944788;29;20087;-44
2024/01/03 06:42:24;;;;;;;8.55;2.50;;;;;;;18.17;53.25;98903.84;4943363;28;20067;-44
2024/01/03 06:44:51;;;;;;;5.80;2.28;;;;;;;18.18;53.23;98908.16;4946749;28;20051;-44
2024/01/03 06:47:17;;;;;;;8.35;2.85;;;;;;;18.14;53.59;98903.41;4943632;29;20059;-44
2024/01/03 06:49:44;;;;;;;9.45;2.88;;;;;;;18.08;53.62;98910.38;4947918;29;20051;-44
2024/01/03 06:52:11;;;;;;;11.02;2.53;;;;;;;18.04;53.67;98914.50;4945295;29;20070;-44
2024/01/03 06:54:37;;;;;;;6.47;2.30;;;;;;;18.06;53.31;98917.00;4946418;28;20124;-44
2024/01/03 06:57:04;;;;;;;10.23;2.05;;;;;;;18.04;53.68;98914.50;4946030;29;20051;-44
2024/01/03 06:59:35;;;;;;;7.25;2.60;;;;;;;18.03;53.22;98907.47;4948107;28;20435;-44
2024/01/03 07:02:03;;;;;;;9.23;2.95;;;;;;;18.01;53.83;98922.97;4948943;28;20070;-42
2024/01/03 07:04:29;;;;;;;5.45;2.13;;;;;;;17.97;53.55;98922.53;4941662;28;20055;-43
2024/01/03 07:06:57;;;;;;;8.60;2.70;;;;;;;17.89;54.34;98917.34;4944723;29;20106;-43
2024/01/03 07:09:23;;;;;;;6.82;2.72;;;;;;;17.95;53.88;98929.94;4946530;28;20047;-43
2024/01/03 07:11:50;;;;;;;7.25;2.17;;;;;;;18.02;53.83;98931.81;4946037;29;20340;-43
2024/01/03 07:14:17;;;;;;;9.07;2.25;;;;;;;18.11;53.89;98938.66;4940514;29;20058;-43
2024/01/03 07:16:44;;;;;;;7.35;2.42;;;;;;;18.19;53.64;98930.44;4943082;29;20047;-43
2024/01/03 07:19:14;;;;;;;6.95;2.45;;;;;;;18.30;53.42;98935.22;4944061;29;20070;-43
2024/01/03 07:21:41;;;;;;;5.78;1.92;;;;;;;18.39;53.05;98939.38;4944259;28;20043;-43
2024/01/03 07:24:08;;;;;;;4.80;2.03;;;;;;;18.47;53.17;98947.22;4942448;28;20055;-43
2024/01/03 07:26:35;;;;;;;6.03;2.10;;;;;;;18.55;52.89;98945.38;4944298;29;20047;-43
2024/01/03 07:29:01;;;;;;;5.72;1.88;;;;;;;18.64;53.07;98957.56;4942795;29;20073;-43
2024/01/03 07:31:28;;;;;;;5.10;1.83;;;;;;;18.71;52.90;98953.09;4948276;28;20050;-42
2024/01/03 07:33:55;;;;;;;5.80;1.67;;;;;;;18.77;52.52;98954.94;4943690;28;20051;-43
2024/01/03 07:36:21;;;;;;;4.90;1.80;;;;;;;18.83;52.32;98956.81;4940148;29;20448;-43
2024/01/03 07:38:48;;;;;;;5.07;2.10;;;;;;;18.89;52.60;98952.47;4944004;29;20047;-43
2024/01/03 07:41:19;;;;;;;5.85;1.95;;;;;;;18.96;52.32;98961.38;4942050;28;20055;-43
2024/01/03 07:43:46;;;;;;;6.32;2.25;;;;;;;19.01;51.97;98958.06;4943776;29;20051;-43
2024/01/03 07:46:17;;;;;;;4.40;1.70;;;;;;;19.06;52.04;98956.41;4943546;29;20396;-43
2024/01/03 07:48:43;;;;;;;5.35;1.67;;;;;;;19.11;52.01;98955.81;4938619;29;20106;-43
2024/01/03 07:51:11;;;;;;;3.55;1.73;;;;;;;19.16;51.92;98964.88;4943879;28;20051;-43
2024/01/03 07:53:38;;;;;;;6.00;2.03;;;;;;;19.21;51.89;98972.31;4943858;29;20059;-43
2024/01/03 07:56:08;;;;;;;6.30;1.83;;;;;;;19.23;52.17;98968.41;4945510;28;20095;-43
2024/01/03 07:58:35;;;;;;;5.60;2.28;;;;;;;19.29;51.53;98966.72;4945051;29;20051;-43
2024/01/03 08:01:02;;;;;;;4.25;1.80;;;;;;;19.32;52.17;98969.00;4944546;28;20055;-43
2024/01/03 08:03:29;;;;;;;4.82;1.77;;;;;;;19.35;52.11;98970.47;4945086;29;20048;-43
2024/01/03 08:05:55;;;;;;;8.10;3.97;;;;;;;19.37;51.35;98969.19;4940806;29;20094;-43
2024/01/03 08:08:22;;;;;;;16.35;8.95;;;;;;;19.40;51.71;98968.78;4941759;28;20047;-43
2024/01/03 08:10:49;;;;;;;21.95;12.13;;;;;;;19.40;51.37;98967.97;4942021;29;20116;-43
2024/01/03 08:13:16;;;;;;;19.30;11.00;;;;;;;19.40;52.15;98967.97;4949031;29;20059;-43
2024/01/03 08:15:43;;;;;;;20.60;11.43;;;;;;;19.38;51.91;98970.88;4948721;29;20058;-43
2024/01/03 08:18:09;;;;;;;24.35;12.00;;;;;;;19.36;52.01;98977.47;4942854;28;20079;-43
2024/01/03 08:20:37;;;;;;;19.23;9.50;;;;;;;19.32;51.88;98987.00;4948334;29;20458;-43
2024/01/03 08:23:04;;;;;;;13.82;7.20;;;;;;;19.29;51.58;98988.22;4943910;29;20142;-43
2024/01/03 08:25:31;;;;;;;14.77;7.38;;;;;;;19.24;51.71;98986.16;4945702;29;20103;-43
2024/01/03 08:27:57;;;;;;;15.77;8.20;;;;;;;19.18;52.17;98989.69;4944928;28;20085;-43
2024/01/03 08:30:24;;;;;;;13.88;7.38;;;;;;;19.14;51.91;98993.00;4948453;28;20059;-43
2024/01/03 08:32:51;;;;;;;16.67;8.85;;;;;;;19.08;52.16;98989.25;4944940;28;20569;-43
2024/01/03 08:35:17;;;;;;;14.80;9.18;;;;;;;19.04;52.30;99001.44;4942813;28;20133;-43
2024/01/03 08:37:44;;;;;;;17.65;10.63;;;;;;;18.96;52.01;99002.47;4945565;29;20057;-43
2024/01/03 08:40:11;;;;;;;24.17;12.68;;;;;;;18.91;52.60;98998.75;4946733;28;20119;-43
2024/01/03 08:42:37;;;;;;;22.30;13.10;;;;;;;18.84;52.84;99004.09;4942418;28;20051;-43
2024/01/03 08:45:04;;;;;;;23.35;13.63;;;;;;;18.81;52.30;98998.31;4943780;28;20060;-43
2024/01/03 08:47:31;;;;;;;25.42;13.98;;;;;;;18.75;52.19;98999.94;4944263;29;20102;-44
2024/01/03 08:49:58;;;;;;;26.42;15.55;;;;;;;18.70;52.80;99000.56;4945993;29;20347;-43
2024/01/03 08:52:24;;;;;;;26.05;15.40;;;;;;;18.65;53.03;98996.78;4942763;28;20058;-43
2024/01/03 08:54:51;;;;;;;27.38;16.35;;;;;;;18.62;52.36;99002.59;4948820;28;20141;-43
2024/01/03 08:57:18;;;;;;;29.45;17.00;;;;;;;18.57;52.62;99005.03;4948954;28;20055;-43
2024/01/03 08:59:44;;;;;;;27.77;17.25;;;;;;;18.53;53.20;99007.28;4944448;28;20073;-43
2024/01/03 09:02:11;;;;;;;32.47;18.50;;;;;;;18.48;53.04;99009.75;4945368;29;20058;-43
2024/01/03 09:04:38;;;;;;;33.70;19.60;;;;;;;18.45;52.94;99004.78;4946056;28;20055;-43
2024/01/03 09:07:04;;;;;;;36.45;20.88;;;;;;;18.42;53.25;99015.94;4948195;29;20128;-43
2024/01/03 09:09:31;;;;;;;31.85;20.73;;;;;;;18.39;53.21;99010.97;4950353;29;20359;-43
2024/01/03 09:11:58;;;;;;;33.42;20.63;;;;;;;18.36;53.39;99012.19;4948348;28;20113;-43
2024/01/03 09:14:25;;;;;;;34.25;20.88;;;;;;;18.35;53.35;99020.44;4949914;28;20051;-43
2024/01/03 09:16:51;;;;;;;38.28;22.88;;;;;;;18.31;53.62;99021.88;4948645;29;20134;-43
2024/01/03 09:19:18;;;;;;;35.50;20.70;;;;;;;18.30;53.43;99015.69;4946966;29;20055;-43
2024/01/03 09:21:45;;;;;;;34.05;21.77;;;;;;;18.39;53.57;99027.06;4951265;28;20073;-43
2024/01/03 09:24:13;;;;;;;37.17;23.58;;;;;;;18.45;53.73;99018.19;4950543;29;20363;-43
2024/01/03 09:26:39;;;;;;;39.97;22.73;;;;;;;18.52;53.09;99023.59;4950525;28;20874;-43
2024/01/03 09:29:07;;;;;;;39.83;23.73;;;;;;;18.59;52.96;99030.63;4949970;28;20078;-43
2024/01/03 09:31:42;;;;;;;43.15;26.48;;;;;;;18.67;53.59;99038.50;4948250;28;20086;-43
2024/01/03 09:34:08;;;;;;;40.25;24.65;;;;;;;18.72;53.10;99030.69;4946813;29;20043;-43
2024/01/03 09:36:35;;;;;;;46.42;26.27;;;;;;;18.77;52.84;99043.50;4949445;28;20039;-43
2024/01/03 09:39:02;;;;;;;50.70;27.15;;;;;;;18.82;53.13;99050.97;4946499;28;20106;-42
2024/01/03 09:41:30;;;;;;;50.63;29.08;;;;;;;18.86;52.76;99058.41;4945504;28;20051;-43
2024/01/03 09:43:57;;;;;;;50.60;28.45;;;;;;;18.89;53.08;99057.16;4947711;28;20501;-43
2024/01/03 09:46:24;;;;;;;55.88;30.13;;;;;;;18.91;52.39;99061.31;4945658;29;20078;-43
2024/01/03 09:48:51;;;;;;;52.47;32.33;;;;;;;18.95;52.65;99077.84;4947581;29;20358;-43
2024/01/03 09:51:19;;;;;;;59.70;31.20;;;;;;;18.98;52.86;99077.44;4945688;29;20055;-43
2024/01/03 09:53:50;;;;;;;57.38;31.85;;;;;;;18.99;52.53;99071.03;4946845;29;20059;-44
2024/01/03 09:56:17;;;;;;;65.18;36.20;;;;;;;19.01;52.94;99070.81;4936546;29;20043;-43
2024/01/03 09:58:45;;;;;;;56.10;32.92;;;;;;;19.01;52.52;99079.69;4935711;29;20056;-43
2024/01/03 10:01:12;;;;;;;57.13;31.92;;;;;;;19.00;52.85;99075.38;4937265;29;20074;-44
2024/01/03 10:03:39;;;;;;;64.25;34.53;;;;;;;19.00;52.95;99078.06;4940258;29;20131;-43
2024/01/03 10:06:14;;;;;;;51.92;32.95;;;;;;;18.98;53.05;99075.59;4940533;28;20435;-43
2024/01/03 10:09:02;;;;;;;57.55;34.03;;;;;;;18.96;53.15;99083.00;4938825;29;20110;-43
2024/01/03 10:11:29;;;;;;;59.25;34.50;;;;;;;18.95;52.92;99084.03;4937880;29;20470;-43
2024/01/03 10:14:12;;;;;;;57.35;32.38;;;;;;;18.93;53.01;99072.66;4943795;28;20082;-43
2024/01/03 10:16:39;;;;;;;58.53;33.42;;;;;;;18.92;52.70;99075.56;4940184;29;20146;-43
2024/01/03 10:19:13;;;;;;;56.92;32.92;;;;;;;18.90;52.57;99074.94;4934208;29;20629;-43
2024/01/03 10:21:52;;;;;;;55.75;32.10;;;;;;;18.89;52.88;99075.97;4938926;28;20549;-43
2024/01/03 10:24:20;;;;;;;56.17;32.10;;;;;;;18.89;52.95;99081.31;4935091;29;20459;-43
2024/01/03 10:26:48;;;;;;;57.63;33.17;;;;;;;18.88;52.77;99082.38;4939020;29;20051;-43
2024/01/03 10:29:17;;;;;;;57.63;32.55;;;;;;;18.88;52.48;99079.69;4936689;29;20063;-43
2024/01/03 10:31:46;;;;;;;55.17;32.38;;;;;;;18.90;53.09;99074.94;4942707;28;20051;-43
2024/01/03 10:34:19;;;;;;;52.95;32.78;;;;;;;18.91;52.66;99068.53;4938791;28;20062;-43
2024/01/03 10:36:47;;;;;;;;;;;;;;;18.92;53.01;99075.56;4940784;29;20043;-43
2024/01/03 10:39:18;;;;;;;55.80;31.00;;;;;;;18.98;52.84;99072.06;4935284;28;19934;-43
2024/01/03 10:41:47;;;;;;;48.50;29.90;;;;;;;18.98;52.94;99077.44;4939839;28;20522;-37
2024/01/03 10:44:16;;;;;;;51.38;28.98;;;;;;;18.97;52.64;99082.00;4933690;29;20047;-37
2024/01/03 10:46:48;;;;;;;48.78;28.25;;;;;;;18.97;52.07;99082.00;4937925;29;20324;-37
2024/01/03 10:49:18;;;;;;;46.70;27.35;;;;;;;18.98;52.20;99089.00;4935969;28;20133;-37
2024/01/03 10:51:51;;;;;;;45.92;26.55;;;;;;;18.98;52.39;99085.50;4938374;29;20346;-37
2024/01/03 10:54:20;;;;;;;43.35;27.30;;;;;;;18.97;52.16;99086.50;4944267;28;20364;-37
2024/01/03 10:56:48;;;;;;;45.05;26.80;;;;;;;18.96;53.00;99066.88;4940510;29;20050;-37
2024/01/03 10:59:17;;;;;;;41.53;25.95;;;;;;;18.96;52.09;99084.88;4941842;29;20059;-37
2024/01/03 11:01:53;;;;;;;42.90;25.52;;;;;;;18.95;52.05;99083.22;4941348;29;20079;-37
2024/01/03 11:04:35;;;;;;;44.55;25.60;;;;;;;18.92;51.96;99086.28;4939751;28;20106;-37
2024/01/03 11:07:09;;;;;;;40.28;24.65;;;;;;;18.93;52.34;99085.25;4940781;29;20577;-37
2024/01/03 11:09:35;;;;;;;;;;;;;;;18.90;52.08;99091.06;4940313;29;20098;-37
2024/01/03 11:12:07;;;;;;;40.20;23.52;;;;;;;18.90;52.15;99089.19;4940193;29;20334;-37
2024/01/03 11:14:37;;;;;;;37.42;23.20;;;;;;;18.94;52.32;99097.69;4940154;29;20176;-37
2024/01/03 11:17:06;;;;;;;42.13;23.05;;;;;;;18.99;52.08;99079.91;4941451;29;20418;-37
2024/01/03 11:19:33;;;;;;;42.53;26.33;;;;;;;19.05;51.89;99083.63;4940268;29;20055;-37
2024/01/03 11:22:04;;;;;;;50.85;31.17;;;;;;;19.12;51.93;99086.34;4938245;28;20054;-37
2024/01/03 11:24:31;;;;;;;64.07;39.20;;;;;;;19.19;51.80;99071.91;4941458;28;20051;-37
2024/01/03 11:27:04;;;;;;;59.58;36.58;;;;;;;19.24;51.54;99077.47;4942149;28;20820;-37